^^
Grace C. Lehan Memorial Weather Station Historical Data
Daily Summary for April 9, 2021 Units:  Metric    English   Both
Daily Weekly Monthly Yearly
  High: Low: Average:
Temperature: -3.6 °C -7.1 °C -5.8 °C
Dew Point: -5.6 °C -10.5 °C -8.7 °C
Humidity: 87% 75.4% 81%
Wind Speed: 0km/h 0km/h 0km/h
Wind Gust: 0km/h - -
Wind- -
Pressure: 1029.7 hPa 1025.3 hPa -
Precipitation: 0 mm    
 
 
Tabular Data for April 9, 2021
Time Temperature Dew Point Pressure Wind Wind Speed Wind Gust Humidity Rainfall Rate (Hourly) solar
00:04 -6.8 °C -10.4 °C 1029.3 hPa Calm     75.4% 0 mm 0 W/m2
00:09 -6.8 °C -10.3 °C 1029.3 hPa Calm     76% 0 mm 0 W/m2
00:14 -6.8 °C -10.4 °C 1029.3 hPa Calm     76% 0 mm 0 W/m2
00:19 -6.9 °C -10.4 °C 1029.3 hPa Calm     76% 0 mm 0 W/m2
00:24 -6.9 °C -10.5 °C 1029.3 hPa Calm     76% 0 mm 0 W/m2
00:29 -7 °C -10.5 °C 1029.3 hPa Calm     76% 0 mm 0 W/m2
00:34 -7.1 °C -10.4 °C 1029.3 hPa Calm     76.7% 0 mm 0 W/m2
00:39 -7.1 °C -10.4 °C 1029.3 hPa Calm     77% 0 mm 0 W/m2
00:44 -7.1 °C -10.4 °C 1029 hPa Calm     77% 0 mm 0 W/m2
00:49 -7 °C -10.1 °C 1029 hPa Calm     78.4% 0 mm 0 W/m2
00:54 -7 °C -9.6 °C 1029.3 hPa Calm     81.5% 0 mm 0 W/m2
00:59 -6.9 °C -10.1 °C 1029.3 hPa Calm     78% 0 mm 0 W/m2
01:04 -6.9 °C -10.1 °C 1029.3 hPa Calm     78% 0 mm 0 W/m2
01:09 -6.9 °C -10.1 °C 1029.7 hPa Calm     78% 0 mm 0 W/m2
01:14 -6.7 °C -10 °C 1029.7 hPa Calm     77.6% 0 mm 0 W/m2
01:19 -6.7 °C -10 °C 1029.3 hPa Calm     77% 0 mm 0 W/m2
01:24 -6.6 °C -9.9 °C 1029.7 hPa Calm     77% 0 mm 0 W/m2
01:29 -6.6 °C -9.9 °C 1029.7 hPa Calm     77% 0 mm 0 W/m2
01:34 -6.5 °C -9.8 °C 1029.7 hPa Calm     77% 0 mm 0 W/m2
01:39 -6.4 °C -9.8 °C 1029.7 hPa Calm     77% 0 mm 0 W/m2
01:44 -6.4 °C -9.7 °C 1029.7 hPa Calm     77% 0 mm 0 W/m2
01:49 -6.3 °C -9.8 °C 1029.3 hPa Calm     76.5% 0 mm 0 W/m2
01:54 -6.3 °C -9.8 °C 1029.3 hPa Calm     76% 0 mm 0 W/m2
01:59 -6.3 °C -9.8 °C 1029.3 hPa Calm     76% 0 mm 0 W/m2
02:04 -6.3 °C -9.8 °C 1029 hPa Calm     76.5% 0 mm 0 W/m2
02:09 -6.3 °C -9.7 °C 1029 hPa Calm     77% 0 mm 0 W/m2
02:14 -6.4 °C -9.8 °C 1029 hPa Calm     77% 0 mm 0 W/m2
02:19 -6.4 °C -9.8 °C 1028.7 hPa Calm     77% 0 mm 0 W/m2
02:24 -6.4 °C -9.7 °C 1028.7 hPa Calm     77.9% 0 mm 0 W/m2
02:29 -6.4 °C -9.7 °C 1028.3 hPa Calm     78% 0 mm 0 W/m2
02:34 -6.4 °C -9.6 °C 1028.3 hPa Calm     78% 0 mm 0 W/m2
02:39 -6.4 °C -9.7 °C 1028.3 hPa Calm     78% 0 mm 0 W/m2
02:44 -6.5 °C -9.7 °C 1028.7 hPa Calm     78% 0 mm 0 W/m2
02:49 -6.6 °C -9.7 °C 1028.3 hPa Calm     78% 0 mm 0 W/m2
02:52 -6.6 °C -9.8 °C 1028.7 hPa Calm     78% 0 mm 0 W/m2
03:00 -6.8 °C -9.9 °C 1028.7 hPa Calm     78% 0 mm 0 W/m2
03:30 -6.8 °C -9.7 °C 1028.7 hPa Calm     80% 0 mm 0 W/m2
04:04 -6.6 °C -9.5 °C 1028.7 hPa Calm     80% 0 mm 0 W/m2
04:09 -6.6 °C -9.3 °C 1028.3 hPa Calm     80.6% 0 mm 0 W/m2
04:14 -6.5 °C -9.2 °C 1028.3 hPa Calm     81% 0 mm 0 W/m2
04:19 -6.4 °C -9.2 °C 1028 hPa Calm     81% 0 mm 0 W/m2
04:24 -6.4 °C -9.2 °C 1028.3 hPa Calm     80.5% 0 mm 0 W/m2
04:29 -6.3 °C -9.1 °C 1028 hPa Calm     80.8% 0 mm 0 W/m2
04:34 -6.3 °C -9.2 °C 1028.3 hPa Calm     80.1% 0 mm 0 W/m2
04:39 -6.2 °C -9.1 °C 1028.3 hPa Calm     80% 0 mm 0 W/m2
04:44 -6.2 °C -9.1 °C 1028.3 hPa Calm     80% 0 mm 0 W/m2
04:49 -6.2 °C -9.1 °C 1028.3 hPa Calm     80% 0 mm 0 W/m2
04:54 -6.2 °C -9.1 °C 1028.3 hPa Calm     80% 0 mm 0 W/m2
04:59 -6.2 °C -9.1 °C 1028 hPa Calm     80% 0 mm 0 W/m2
05:04 -6.2 °C -9.1 °C 1028 hPa Calm     80% 0 mm 0 W/m2
05:09 -6.2 °C -9 °C 1028 hPa Calm     80% 0 mm 0 W/m2
05:14 -6.1 °C -8.9 °C 1028 hPa Calm     80% 0 mm 0 W/m2
05:19 -6.1 °C -8.9 °C 1028 hPa Calm     80.2% 0 mm 0 W/m2
05:24 -6 °C -8.8 °C 1028 hPa Calm     81% 0 mm 0 W/m2
05:29 -6 °C -8.8 °C 1028 hPa Calm     80.4% 0 mm 0 W/m2
05:34 -6 °C -8.9 °C 1028 hPa Calm     80% 0 mm 0 W/m2
05:39 -6 °C -8.8 °C 1028 hPa Calm     80.8% 0 mm 0 W/m2
05:44 -5.9 °C -8.7 °C 1028 hPa Calm     81% 0 mm 0 W/m2
05:49 -5.9 °C -8.7 °C 1028 hPa Calm     81% 0 mm 0 W/m2
05:54 -5.9 °C -8.7 °C 1028 hPa Calm     81% 0 mm 0 W/m2
05:59 -5.9 °C -8.6 °C 1028 hPa Calm     81% 0 mm 0 W/m2
06:04 -5.8 °C -8.6 °C 1028 hPa Calm     81% 0 mm 0 W/m2
06:09 -5.8 °C -8.6 °C 1028 hPa Calm     81% 0 mm 0 W/m2
06:14 -5.8 °C -8.5 °C 1028 hPa Calm     81% 0 mm 0 W/m2
06:19 -5.7 °C -8.6 °C 1027.7 hPa Calm     80.1% 0 mm 0 W/m2
06:24 -5.7 °C -8.6 °C 1027.7 hPa Calm     80% 0 mm 0 W/m2
06:29 -5.7 °C -8.6 °C 1028 hPa Calm     80% 0 mm 0 W/m2
06:34 -5.6 °C -8.3 °C 1027.7 hPa Calm     80.8% 0 mm 0 W/m2
06:39 -5.6 °C -8.4 °C 1027.7 hPa Calm     80% 0 mm 0 W/m2
06:44 -5.5 °C -8.4 °C 1027.7 hPa Calm     80% 0 mm 0 W/m2
06:49 -5.4 °C -8.3 °C 1027.7 hPa Calm     80% 0 mm 0 W/m2
06:54 -5.4 °C -8.3 °C 1027.7 hPa Calm     80% 0 mm 0 W/m2
06:59 -5.4 °C -8.2 °C 1027.3 hPa Calm     80.7% 0 mm 0 W/m2
07:04 -5.3 °C -8.1 °C 1027 hPa Calm     81% 0 mm 0 W/m2
07:09 -5.3 °C -8 °C 1027 hPa Calm     81.3% 0 mm 0 W/m2
07:14 -5.2 °C -7.8 °C 1027 hPa Calm     82% 0 mm 0 W/m2
07:19 -5.2 °C -7.8 °C 1027 hPa Calm     82% 0 mm 0 W/m2
07:24 -5.2 °C -7.7 °C 1026.6 hPa Calm     82% 0 mm 5 W/m2
07:29 -5.1 °C -7.7 °C 1027 hPa Calm     82.1% 0 mm 7 W/m2
07:34 -5.1 °C -7.6 °C 1027 hPa Calm     83% 0 mm 9 W/m2
07:39 -5.1 °C -7.5 °C 1027 hPa Calm     83% 0 mm 9 W/m2
07:44 -5.1 °C -7.5 °C 1026.6 hPa Calm     83% 0 mm 11 W/m2
07:49 -5.1 °C -7.4 °C 1026.6 hPa Calm     83.7% 0 mm 11 W/m2
07:54 -5 °C -7.3 °C 1026.6 hPa Calm     84% 0 mm 12 W/m2
07:59 -5 °C -7.3 °C 1026.6 hPa Calm     84% 0 mm 14 W/m2
08:04 -4.9 °C -7.1 °C 1026.3 hPa Calm     85% 0 mm 16 W/m2
08:09 -4.9 °C -7.1 °C 1026.6 hPa Calm     85% 0 mm 23 W/m2
08:14 -4.9 °C -7 °C 1026.3 hPa Calm     85% 0 mm 26 W/m2
08:15 -4.8 °C -7 °C 1026.3 hPa Calm     85% 0 mm 26 W/m2
08:30 -4.6 °C -6.6 °C 1026.3 hPa Calm     86% 0 mm 25 W/m2
09:09 -4.2 °C -6.4 °C 1026.3 hPa Calm     85% 0 mm 39 W/m2
09:14 -4.2 °C -6.4 °C 1026.3 hPa Calm     85% 0 mm 44 W/m2
09:19 -4.2 °C -6.3 °C 1026 hPa Calm     85.5% 0 mm 53 W/m2
09:24 -4.2 °C -6.2 °C 1026 hPa Calm     86% 0 mm 53 W/m2
09:29 -4.1 °C -6.1 °C 1026 hPa Calm     86% 0 mm 40 W/m2
09:34 -4 °C -6 °C 1026 hPa Calm     86% 0 mm 46 W/m2
09:39 -4 °C -5.9 °C 1026 hPa Calm     86% 0 mm 58 W/m2
09:44 -3.9 °C -5.9 °C 1026 hPa Calm     86% 0 mm 63 W/m2
09:49 -3.8 °C -5.7 °C 1025.6 hPa Calm     87% 0 mm 67 W/m2
09:54 -3.7 °C -5.6 °C 1025.6 hPa Calm     87% 0 mm 56 W/m2
09:59 -3.7 °C -5.7 °C 1025.6 hPa Calm     86.2% 0 mm 39 W/m2
10:04 -3.7 °C -5.7 °C 1025.3 hPa Calm     86% 0 mm 32 W/m2
10:08 -3.6 °C -5.6 °C 1025.3 hPa Calm     86.5% 0 mm 33 W/m2
Hartford County Weather
Compliments of Weather Underground - 2 mb